Time;durP1;ratioP1;P1;durP2;ratioP2;P2;SDS_P1;SDS_P2;PMS_P1;PMS_P2;Temp;Humidity;BMP_temperature;BMP_pressure;BME280_temperature;BME280_humidity;BME280_pressure;Samples;Min_cycle;Max_cycle;Signal;HPM_P1;HPM_P2
2022/03/14 00:02:20;;;;;;;4.72;1.23;;;;;;;11.39;85.20;101038.72;7385681;19;20420;-80
2022/03/14 00:04:51;;;;;;;12.98;1.98;;;;;;;11.37;84.37;101052.06;7383995;19;20011;-80
2022/03/14 00:07:18;;;;;;;7.22;1.00;;;;;;;11.38;84.53;101044.97;7385135;19;20019;-81
2022/03/14 00:09:46;;;;;;;6.65;0.95;;;;;;;11.34;84.24;101040.97;7388226;19;20010;-81
2022/03/14 00:12:19;;;;;;;4.57;1.42;;;;;;;11.32;84.31;101050.88;7392941;19;20010;-80
2022/03/14 00:14:46;;;;;;;14.55;3.70;;;;;;;11.31;84.42;101041.31;7389173;19;20007;-81
2022/03/14 00:17:14;;;;;;;6.40;1.05;;;;;;;11.28;84.55;101047.69;7391188;19;20204;-79
2022/03/14 00:19:43;;;;;;;21.85;7.47;;;;;;;11.28;85.21;101046.84;7389454;19;20342;-81
2022/03/14 00:22:10;;;;;;;9.38;1.95;;;;;;;11.29;84.75;101059.06;7388658;19;20013;-80
2022/03/14 00:24:37;;;;;;;13.25;2.85;;;;;;;11.26;84.82;101056.72;7393280;19;20324;-81
2022/03/14 00:27:06;;;;;;;9.35;1.75;;;;;;;11.26;84.75;101068.09;7388281;19;20313;-80
2022/03/14 00:29:46;;;;;;;7.70;2.40;;;;;;;11.25;84.83;101081.41;7391027;19;20405;-80
2022/03/14 00:32:19;;;;;;;13.43;2.00;;;;;;;11.23;84.86;101092.09;7389776;19;20391;-79
2022/03/14 00:35:10;;;;;;;9.50;1.40;;;;;;;11.20;84.55;101089.75;7386176;19;20012;-79
2022/03/14 00:37:42;;;;;;;11.93;1.45;;;;;;;11.17;84.85;101095.34;7391262;19;20390;-80
2022/03/14 00:40:10;;;;;;;10.50;1.60;;;;;;;11.17;84.86;101115.59;7393024;19;20061;-80
2022/03/14 00:42:39;;;;;;;5.95;1.67;;;;;;;11.16;85.32;101106.84;7388964;19;20011;-80
2022/03/14 00:45:07;;;;;;;7.70;2.00;;;;;;;11.19;85.97;101110.97;7392902;19;20022;-80
2022/03/14 00:47:34;;;;;;;10.88;2.40;;;;;;;11.19;85.26;101119.72;7388136;19;20321;-79
2022/03/14 00:50:02;;;;;;;10.30;1.83;;;;;;;11.22;85.37;101119.44;7388808;19;20429;-79
2022/03/14 00:52:29;;;;;;;8.70;1.80;;;;;;;11.21;85.10;101128.31;7389350;19;20015;-79
2022/03/14 00:54:56;;;;;;;7.75;2.65;;;;;;;11.20;85.10;101131.91;7390504;19;20022;-81
2022/03/14 00:57:23;;;;;;;8.98;1.95;;;;;;;11.21;85.15;101146.75;7390573;19;20155;-81
2022/03/14 00:59:51;;;;;;;8.52;3.17;;;;;;;11.19;85.31;101139.94;7387868;19;20011;-79
2022/03/14 01:02:18;;;;;;;11.98;2.50;;;;;;;11.16;85.13;101143.72;7388791;19;20010;-79
2022/03/14 01:04:45;;;;;;;13.27;1.73;;;;;;;11.13;85.15;101157.16;7391184;19;20015;-79
2022/03/14 01:07:12;;;;;;;11.27;1.75;;;;;;;11.11;85.23;101164.41;7392118;19;20325;-79
2022/03/14 01:09:39;;;;;;;9.80;2.95;;;;;;;11.07;85.51;101165.69;7388144;19;20490;-80
2022/03/14 01:12:07;;;;;;;13.68;2.22;;;;;;;11.05;85.44;101168.47;7384126;19;20237;-79
2022/03/14 01:14:35;;;;;;;12.52;2.65;;;;;;;11.03;85.72;101175.66;7388362;19;20057;-80
2022/03/14 01:17:02;;;;;;;11.70;2.88;;;;;;;11.02;85.76;101171.38;7387612;19;20392;-80
2022/03/14 01:19:29;;;;;;;21.55;8.27;;;;;;;11.04;86.81;101181.75;7385786;19;20077;-79
2022/03/14 01:21:56;;;;;;;9.68;2.83;;;;;;;11.03;86.95;101191.47;7392291;19;20030;-81
2022/03/14 01:24:24;;;;;;;8.15;1.80;;;;;;;11.04;86.03;101187.84;7389649;19;20435;-79
2022/03/14 01:26:52;;;;;;;11.80;2.50;;;;;;;11.03;86.39;101190.63;7389605;19;20967;-80
2022/03/14 01:29:19;;;;;;;12.50;2.40;;;;;;;11.05;85.99;101186.88;7391700;19;20052;-80
2022/03/14 01:31:46;;;;;;;11.60;2.50;;;;;;;11.07;85.96;101202.56;7385346;19;20010;-79
2022/03/14 01:34:14;;;;;;;10.85;1.95;;;;;;;11.09;86.11;101204.03;7386811;19;20018;-80
2022/03/14 01:36:41;;;;;;;6.65;1.77;;;;;;;11.11;86.32;101209.16;7388372;19;20515;-81
2022/03/14 01:39:08;;;;;;;10.15;2.42;;;;;;;11.12;85.91;101210.84;7388321;19;20018;-79
2022/03/14 01:41:35;;;;;;;9.27;1.77;;;;;;;11.08;85.90;101217.34;7387621;19;20250;-81
2022/03/14 01:44:06;;;;;;;9.63;1.75;;;;;;;11.06;85.62;101209.63;7387585;19;20017;-81
2022/03/14 01:46:34;;;;;;;14.20;2.47;;;;;;;11.05;85.83;101215.03;7386398;19;20014;-81
2022/03/14 01:49:01;;;;;;;26.45;7.97;;;;;;;11.02;85.46;101217.97;7386021;19;20464;-80
2022/03/14 01:51:29;;;;;;;11.77;2.25;;;;;;;10.99;86.17;101226.13;7385957;19;20420;-81
2022/03/14 01:53:59;;;;;;;8.98;1.67;;;;;;;10.98;86.46;101227.94;7388427;19;20054;-81
2022/03/14 01:56:34;;;;;;;37.05;6.32;;;;;;;11.01;87.11;101242.63;7386905;19;20331;-79
2022/03/14 01:59:01;;;;;;;11.93;2.08;;;;;;;11.04;87.38;101250.22;7387798;19;20091;-80
2022/03/14 02:01:28;;;;;;;8.48;2.25;;;;;;;11.00;86.30;101251.50;7393237;19;20014;-80
2022/03/14 02:03:59;;;;;;;11.95;2.30;;;;;;;10.98;85.74;101261.31;7388435;19;20093;-81
2022/03/14 02:06:32;;;;;;;13.35;4.03;;;;;;;10.95;85.70;101264.25;7391252;19;20010;-79
2022/03/14 02:09:00;;;;;;;12.75;2.20;;;;;;;10.94;86.28;101273.97;7389649;19;20011;-82
2022/03/14 02:11:27;;;;;;;13.57;1.70;;;;;;;10.89;86.07;101278.81;7389372;19;20040;-79
2022/03/14 02:13:56;;;;;;;13.13;1.90;;;;;;;10.88;86.29;101278.97;7386486;19;20018;-79
2022/03/14 02:16:28;;;;;;;16.00;2.90;;;;;;;10.88;86.21;101287.69;7387703;19;20021;-80
2022/03/14 02:18:56;;;;;;;9.60;1.63;;;;;;;10.85;86.36;101280.09;7384890;19;21208;-79
2022/03/14 02:21:24;;;;;;;11.88;3.20;;;;;;;10.77;85.88;101287.84;7387740;19;20014;-80
2022/03/14 02:23:51;;;;;;;14.18;2.08;;;;;;;10.73;86.33;101289.94;7386657;19;20533;-80
2022/03/14 02:26:18;;;;;;;12.30;1.48;;;;;;;10.73;86.33;101302.28;7387970;19;20036;-80
2022/03/14 02:28:45;;;;;;;7.65;1.92;;;;;;;10.69;86.39;101299.09;7388658;19;20474;-80
2022/03/14 02:31:12;;;;;;;11.57;2.95;;;;;;;10.65;86.12;101292.47;7387782;19;20086;-80
2022/03/14 02:33:39;;;;;;;13.45;2.47;;;;;;;10.63;86.45;101297.03;7386551;19;20057;-80
2022/03/14 02:36:06;;;;;;;15.70;2.03;;;;;;;10.63;86.82;101309.34;7387169;19;20010;-80
2022/03/14 02:38:33;;;;;;;8.68;1.55;;;;;;;10.62;86.71;101319.06;7384471;19;20010;-80
2022/03/14 02:41:00;;;;;;;6.00;1.90;;;;;;;10.60;86.42;101320.19;7391350;19;20336;-79
2022/03/14 02:43:27;;;;;;;12.27;1.90;;;;;;;10.58;86.32;101319.47;7385376;19;20003;-81
2022/03/14 02:45:55;;;;;;;6.78;1.85;;;;;;;10.56;86.81;101324.06;7385381;19;20010;-80
2022/03/14 02:48:23;;;;;;;9.43;2.03;;;;;;;10.54;86.46;101324.19;7385159;19;20336;-81
2022/03/14 02:50:53;;;;;;;8.15;2.05;;;;;;;10.52;86.42;101334.03;7382354;19;20467;-80
2022/03/14 02:53:21;;;;;;;10.02;1.70;;;;;;;10.52;86.27;101343.72;7383621;19;20336;-80
2022/03/14 02:55:48;;;;;;;11.75;2.10;;;;;;;10.49;86.56;101341.38;7385004;19;20392;-81
2022/03/14 02:58:16;;;;;;;12.80;2.17;;;;;;;10.47;86.41;101345.94;7386227;19;20007;-79
2022/03/14 03:00:43;;;;;;;10.18;1.77;;;;;;;10.42;86.08;101351.59;7383103;19;20006;-81
2022/03/14 03:03:11;;;;;;;10.77;2.40;;;;;;;10.43;86.37;101362.97;7384490;19;20118;-81
2022/03/14 03:05:43;;;;;;;12.02;2.08;;;;;;;10.38;86.58;101363.38;7384353;19;20031;-80
2022/03/14 03:08:14;;;;;;;11.77;1.90;;;;;;;10.35;86.53;101378.63;7384684;19;20082;-80
2022/03/14 03:10:42;;;;;;;12.50;2.15;;;;;;;10.32;86.69;101386.78;7384240;19;20370;-80
2022/03/14 03:13:10;;;;;;;9.07;1.50;;;;;;;10.27;86.58;101385.38;7385203;19;20101;-81
2022/03/14 03:15:37;;;;;;;13.32;1.77;;;;;;;10.26;86.76;101394.25;7385721;19;20010;-80
2022/03/14 03:18:06;;;;;;;9.82;1.40;;;;;;;10.24;86.49;101408.50;7383778;19;20018;-80
2022/03/14 03:20:33;;;;;;;14.07;1.65;;;;;;;10.25;87.29;101399.66;7384690;19;20010;-81
2022/03/14 03:23:01;;;;;;;10.30;1.77;;;;;;;10.26;87.54;101409.19;7387186;19;20018;-81
2022/03/14 03:25:28;;;;;;;45.53;14.07;;;;;;;10.25;87.46;101408.38;7385693;19;20010;-80
2022/03/14 03:27:55;;;;;;;14.05;2.70;;;;;;;10.27;87.85;101411.69;7386090;19;20420;-80
2022/03/14 03:30:23;;;;;;;8.65;1.23;;;;;;;10.26;86.98;101419.69;7381516;19;20010;-79
2022/03/14 03:32:51;;;;;;;11.18;2.40;;;;;;;10.26;87.04;101423.16;7389342;19;20025;-79
2022/03/14 03:35:18;;;;;;;11.93;2.05;;;;;;;10.26;86.97;101432.84;7381502;19;20048;-79
2022/03/14 03:37:45;;;;;;;7.25;1.25;;;;;;;10.21;86.75;101440.31;7383715;19;20328;-79
2022/03/14 03:40:15;;;;;;;6.93;2.17;;;;;;;10.19;86.37;101448.38;7389579;19;20033;-79
2022/03/14 03:42:45;;;;;;;;;;;;;;;10.20;86.51;101438.69;7382791;19;20003;-81
2022/03/14 03:45:13;;;;;;;8.63;1.60;;;;;;;10.13;86.33;101440.13;7383809;19;20236;-81
2022/03/14 03:47:41;;;;;;;12.38;2.28;;;;;;;10.13;86.38;101445.41;7385784;19;20047;-80
2022/03/14 03:50:09;;;;;;;6.68;1.38;;;;;;;10.12;86.33;101454.25;7383120;19;20074;-81
2022/03/14 03:52:36;;;;;;;9.00;2.00;;;;;;;10.11;86.36;101456.03;7382410;19;20028;-81
2022/03/14 03:55:05;;;;;;;16.25;1.75;;;;;;;10.10;86.23;101466.72;7387051;19;20010;-80
2022/03/14 03:57:38;;;;;;;11.15;1.92;;;;;;;10.07;85.88;101469.59;7382746;19;20387;-79
2022/03/14 04:00:09;;;;;;;7.47;1.50;;;;;;;10.04;86.21;101467.25;7382685;19;20003;-80
2022/03/14 04:02:39;;;;;;;11.25;1.52;;;;;;;10.04;85.94;101477.75;7386944;19;20015;-80
2022/03/14 04:05:09;;;;;;;13.52;2.45;;;;;;;10.02;86.10;101475.25;7382095;19;20010;-80
2022/03/14 04:07:36;;;;;;;5.75;0.98;;;;;;;10.00;85.66;101487.72;7386516;19;20038;-80
2022/03/14 04:10:03;;;;;;;14.52;1.35;;;;;;;9.97;85.32;101495.84;7380789;19;20299;-80
2022/03/14 04:12:33;;;;;;;8.02;1.42;;;;;;;9.98;85.47;101494.06;7382436;19;20017;-81
2022/03/14 04:15:09;;;;;;;11.30;3.05;;;;;;;9.98;85.53;101499.31;7386616;19;20014;-80
2022/03/14 04:17:37;;;;;;;4.60;1.13;;;;;;;9.95;85.40;101503.06;7382482;19;20002;-79
2022/03/14 04:20:06;;;;;;;9.80;0.90;;;;;;;9.95;84.99;101502.22;7384522;19;20037;-79
2022/03/14 04:22:37;;;;;;;14.23;1.25;;;;;;;9.92;84.61;101499.84;7384879;19;20014;-79
2022/03/14 04:25:07;;;;;;;7.03;1.63;;;;;;;9.91;84.82;101519.19;7385836;19;20011;-79
2022/03/14 04:27:34;;;;;;;10.38;2.58;;;;;;;9.88;84.98;101515.88;7384574;19;20025;-79
2022/03/14 04:30:02;;;;;;;6.20;1.13;;;;;;;9.84;84.97;101517.13;7385345;19;20443;-80
2022/03/14 04:32:29;;;;;;;10.00;1.30;;;;;;;9.84;84.81;101521.53;7383392;19;20083;-80
2022/03/14 04:35:00;;;;;;;7.22;1.42;;;;;;;9.85;84.67;101523.22;7386378;19;20447;-79
2022/03/14 04:37:27;;;;;;;12.05;1.25;;;;;;;9.83;84.65;101533.00;7383427;19;20451;-79
2022/03/14 04:39:54;;;;;;;10.10;0.90;;;;;;;9.82;84.62;101540.06;7386306;19;20018;-79
2022/03/14 04:42:21;;;;;;;7.88;1.08;;;;;;;9.80;84.24;101541.16;7385034;19;20011;-80
2022/03/14 04:44:49;;;;;;;8.73;1.00;;;;;;;9.80;84.86;101547.22;7385731;19;20035;-79
2022/03/14 04:47:17;;;;;;;10.82;2.10;;;;;;;9.81;84.58;101550.69;7382278;19;20030;-79
2022/03/14 04:49:44;;;;;;;9.10;1.80;;;;;;;9.81;85.45;101553.31;7381583;19;20504;-79
2022/03/14 04:52:11;;;;;;;14.88;3.33;;;;;;;9.81;84.94;101559.41;7380351;19;20018;-80
2022/03/14 04:54:39;;;;;;;8.80;1.65;;;;;;;9.82;85.51;101549.72;7383403;19;20561;-80
2022/03/14 04:57:06;;;;;;;12.00;1.65;;;;;;;9.82;85.24;101553.19;7394756;19;20015;-80
2022/03/14 04:59:35;;;;;;;6.63;0.90;;;;;;;9.77;84.59;101546.66;7389698;19;20011;-79
2022/03/14 05:02:03;;;;;;;6.82;1.05;;;;;;;9.74;84.40;101553.03;7388682;19;20031;-79
2022/03/14 05:04:31;;;;;;;8.85;1.33;;;;;;;9.72;84.20;101554.94;7391707;19;20116;-81
2022/03/14 05:06:59;;;;;;;7.75;1.10;;;;;;;9.72;84.20;101559.34;7389384;19;20022;-81
2022/03/14 05:09:26;;;;;;;9.63;1.30;;;;;;;9.69;84.07;101557.84;7386586;19;20010;-80
2022/03/14 05:11:53;;;;;;;20.17;5.70;;;;;;;9.68;84.62;101560.56;7388975;19;20488;-79
2022/03/14 05:14:21;;;;;;;8.77;1.10;;;;;;;9.69;84.98;101563.09;7387389;19;20019;-80
2022/03/14 05:16:48;;;;;;;10.90;1.50;;;;;;;9.68;85.01;101573.72;7388195;19;20023;-80
2022/03/14 05:19:15;;;;;;;14.38;1.55;;;;;;;9.62;84.35;101569.81;7389545;19;20449;-79
2022/03/14 05:21:43;;;;;;;11.32;1.15;;;;;;;9.62;84.46;101571.59;7386848;19;20017;-80
2022/03/14 05:24:10;;;;;;;10.73;1.75;;;;;;;9.62;84.23;101582.09;7387193;19;20014;-79
2022/03/14 05:26:37;;;;;;;9.02;0.90;;;;;;;9.61;84.07;101583.06;7387881;19;20470;-79
2022/03/14 05:29:05;;;;;;;6.70;1.15;;;;;;;9.61;84.25;101591.78;7388771;19;20006;-80
2022/03/14 05:31:32;;;;;;;12.95;1.30;;;;;;;9.59;84.42;101585.84;7387069;19;20429;-80
2022/03/14 05:34:00;;;;;;;6.75;1.17;;;;;;;9.59;84.22;101596.34;7384066;19;20510;-80
2022/03/14 05:36:27;;;;;;;8.80;1.30;;;;;;;9.57;83.86;101592.16;7386278;19;20013;-80
2022/03/14 05:38:54;;;;;;;6.45;1.05;;;;;;;9.55;84.18;101592.28;7388643;19;20015;-80
2022/03/14 05:41:21;;;;;;;13.15;4.22;;;;;;;9.58;85.77;101597.28;7390382;19;20014;-80
2022/03/14 05:43:48;;;;;;;11.07;1.27;;;;;;;9.55;85.58;101608.03;7385657;19;20015;-80
2022/03/14 05:46:15;;;;;;;8.65;1.15;;;;;;;9.51;84.53;101617.13;7385307;19;20033;-79
2022/03/14 05:48:43;;;;;;;8.73;1.83;;;;;;;9.47;84.36;101617.53;7385742;19;20002;-80
2022/03/14 05:51:10;;;;;;;9.48;1.25;;;;;;;9.48;84.63;101632.31;7389611;19;20011;-80
2022/03/14 05:53:37;;;;;;;8.57;1.55;;;;;;;9.46;84.36;101640.31;7388861;19;20439;-79
2022/03/14 05:56:05;;;;;;;8.18;1.20;;;;;;;9.44;84.80;101648.34;7387645;19;20015;-80
2022/03/14 05:58:32;;;;;;;8.05;2.17;;;;;;;9.44;84.45;101650.16;7384597;19;20140;-79
2022/03/14 06:00:59;;;;;;;4.57;0.88;;;;;;;9.43;84.17;101672.94;7387280;19;20019;-80
2022/03/14 06:03:27;;;;;;;9.82;1.17;;;;;;;9.43;84.54;101683.44;7388209;19;20506;-79
2022/03/14 06:05:54;;;;;;;9.27;2.35;;;;;;;9.41;84.24;101680.09;7384113;19;20125;-79
2022/03/14 06:08:21;;;;;;;3.30;0.70;;;;;;;9.40;84.49;101688.94;7390488;19;20045;-80
2022/03/14 06:10:48;;;;;;;11.52;0.80;;;;;;;9.39;84.48;101687.28;7386408;19;20498;-79
2022/03/14 06:13:19;;;;;;;8.48;1.50;;;;;;;9.37;84.25;101691.81;7386480;19;20014;-79
2022/03/14 06:15:49;;;;;;;6.60;1.10;;;;;;;9.37;84.42;101694.44;7385272;19;20326;-79
2022/03/14 06:18:17;;;;;;;19.15;8.43;;;;;;;9.36;84.79;101699.81;7389571;19;20045;-80
2022/03/14 06:20:45;;;;;;;9.13;1.17;;;;;;;9.35;84.75;101700.75;7383113;19;20027;-80
2022/03/14 06:23:16;;;;;;;7.05;1.40;;;;;;;9.36;84.45;101698.03;7390348;19;20022;-80
2022/03/14 06:25:44;;;;;;;12.07;1.38;;;;;;;9.38;84.68;101698.75;7385319;19;20010;-80
2022/03/14 06:28:11;;;;;;;6.78;3.70;;;;;;;9.37;84.39;101709.38;7385548;19;20531;-80
2022/03/14 06:30:38;;;;;;;9.60;2.28;;;;;;;9.39;86.32;101710.09;7385618;19;20367;-80
2022/03/14 06:33:11;;;;;;;9.85;1.30;;;;;;;9.40;85.23;101716.97;7386281;19;20033;-80
2022/03/14 06:35:40;;;;;;;12.45;1.25;;;;;;;9.38;84.65;101719.75;7384700;19;20014;-81
2022/03/14 06:38:07;;;;;;;10.50;1.38;;;;;;;9.40;84.58;101724.88;7385772;19;20026;-80
2022/03/14 06:40:35;;;;;;;6.45;1.15;;;;;;;9.40;84.06;101735.38;7384413;19;20011;-80
2022/03/14 06:43:17;;;;;;;9.23;1.45;;;;;;;9.40;84.25;101730.94;7387921;19;20332;-80
2022/03/14 06:45:45;;;;;;;9.25;2.05;;;;;;;9.40;84.13;101730.13;7384929;19;20021;-79
2022/03/14 06:48:13;;;;;;;34.17;8.23;;;;;;;9.38;84.53;101737.31;7389586;19;20023;-80
2022/03/14 06:50:40;;;;;;;10.38;2.25;;;;;;;9.40;84.64;101748.50;7383553;19;20018;-80
2022/03/14 06:53:10;;;;;;;9.82;2.33;;;;;;;9.42;84.42;101746.59;7385491;19;20031;-80
2022/03/14 06:55:44;;;;;;;10.32;2.40;;;;;;;9.44;84.26;101752.56;7389516;19;20094;-80
2022/03/14 06:58:12;;;;;;;12.48;1.52;;;;;;;9.44;83.90;101757.84;7386332;19;20025;-80
2022/03/14 07:00:40;;;;;;;9.30;2.08;;;;;;;9.47;83.69;101768.09;7386858;19;20018;-79
2022/03/14 07:03:09;;;;;;;6.75;1.80;;;;;;;9.51;84.02;101771.28;7387030;19;20010;-80
2022/03/14 07:05:37;;;;;;;7.03;1.60;;;;;;;9.54;83.63;101774.53;7383635;19;20018;-79
2022/03/14 07:08:04;;;;;;;5.38;1.10;;;;;;;9.57;83.53;101773.44;7385815;19;20011;-79
2022/03/14 07:10:32;;;;;;;8.48;1.25;;;;;;;9.58;83.14;101781.19;7386075;19;20547;-79
2022/03/14 07:13:02;;;;;;;4.63;1.48;;;;;;;9.60;83.13;101786.34;7383071;19;20014;-79
2022/03/14 07:15:35;;;;;;;8.05;1.27;;;;;;;9.62;82.79;101787.03;7384588;19;20010;-80
2022/03/14 07:18:02;;;;;;;15.65;5.53;;;;;;;9.62;84.08;101785.25;7381395;19;20029;-81
2022/03/14 07:20:30;;;;;;;10.02;1.77;;;;;;;9.66;84.48;101788.44;7381560;19;20098;-81
2022/03/14 07:23:06;;;;;;;8.25;4.40;;;;;;;9.64;83.92;101799.09;7384053;19;20508;-80
2022/03/14 07:25:40;;;;;;;9.23;1.38;;;;;;;9.66;83.11;101798.97;7385445;19;20017;-80
2022/03/14 07:28:09;;;;;;;9.60;1.20;;;;;;;9.64;82.31;101809.63;7389366;19;20011;-79
2022/03/14 07:30:38;;;;;;;9.23;1.60;;;;;;;9.67;82.32;101816.41;7384879;19;20026;-80
2022/03/14 07:33:10;;;;;;;12.23;1.85;;;;;;;9.71;82.22;101821.28;7385402;19;20091;-79
2022/03/14 07:35:37;;;;;;;7.72;2.55;;;;;;;9.80;82.82;101814.47;7380056;19;20053;-81
2022/03/14 07:38:05;;;;;;;6.28;1.15;;;;;;;9.84;82.94;101819.38;7386874;19;20014;-80
2022/03/14 07:40:32;;;;;;;6.20;1.10;;;;;;;9.88;82.34;101826.03;7381187;19;20018;-78
2022/03/14 07:46:03;;;;;;;6.30;1.10;;;;;;;10.44;79.76;101828.50;7385989;19;20014;-78
2022/03/14 07:48:31;;;;;;;10.23;1.35;;;;;;;10.66;78.42;101838.91;7383058;19;20033;-80
2022/03/14 07:50:58;;;;;;;14.15;1.10;;;;;;;10.97;77.04;101844.22;7383862;19;20011;-79
2022/03/14 07:53:26;;;;;;;11.23;4.00;;;;;;;11.34;77.44;101842.72;7387459;19;20115;-81
2022/03/14 07:55:53;;;;;;;7.93;1.10;;;;;;;11.53;76.15;101844.59;7383102;19;20094;-81
2022/03/14 07:58:22;;;;;;;8.40;2.20;;;;;;;11.53;74.97;101840.16;7389699;19;20010;-81
2022/03/14 08:00:54;;;;;;;14.50;4.72;;;;;;;11.55;75.78;101850.56;7388217;19;20455;-80
2022/03/14 08:03:22;;;;;;;9.45;1.13;;;;;;;11.36;74.79;101851.34;7387745;19;20257;-80
2022/03/14 08:05:55;;;;;;;9.75;4.28;;;;;;;11.32;76.32;101854.38;7383618;19;20019;-81
2022/03/14 08:08:23;;;;;;;11.05;1.85;;;;;;;11.27;77.05;101865.31;7383909;19;20703;-81
2022/03/14 08:10:50;;;;;;;11.02;2.28;;;;;;;11.25;75.74;101885.69;7388865;19;20033;-81
2022/03/14 08:13:19;;;;;;;4.88;0.90;;;;;;;11.20;76.38;101882.59;7386409;19;20361;-81
2022/03/14 08:15:49;;;;;;;5.95;0.80;;;;;;;11.15;75.98;101890.06;7385224;19;20459;-82
2022/03/14 08:18:20;;;;;;;9.93;1.77;;;;;;;11.12;76.74;101879.78;7385082;19;20425;-81
2022/03/14 08:20:50;;;;;;;8.45;0.88;;;;;;;11.18;76.21;101887.16;7386228;19;20015;-81
2022/03/14 08:23:17;;;;;;;5.30;0.77;;;;;;;11.29;75.22;101883.59;7386570;19;20019;-80
2022/03/14 08:25:46;;;;;;;9.73;1.67;;;;;;;11.49;74.34;101898.53;7385780;19;20010;-80
2022/03/14 08:28:13;;;;;;;5.88;1.10;;;;;;;11.74;73.70;101890.22;7384869;19;20007;-82
2022/03/14 08:30:41;;;;;;;5.68;0.73;;;;;;;12.00;72.05;101896.66;7389803;19;20029;-81
2022/03/14 08:33:41;;;;;;;2.72;0.70;;;;;;;12.38;70.78;101905.63;7390804;19;20328;-82
2022/03/14 08:36:14;;;;;;;5.18;0.70;;;;;;;12.39;69.91;101908.09;7387134;19;20022;-81
2022/03/14 08:38:41;;;;;;;6.20;0.93;;;;;;;12.37;70.87;101906.59;7390768;19;20017;-81
2022/03/14 08:41:08;;;;;;;8.55;4.28;;;;;;;12.30;72.42;101905.47;7389674;19;20018;-79
2022/03/14 08:43:36;;;;;;;6.25;0.70;;;;;;;12.16;72.92;101905.88;7392195;19;20333;-80
2022/03/14 08:46:03;;;;;;;4.47;1.05;;;;;;;12.03;71.71;101906.13;7392866;19;20014;-81
2022/03/14 08:48:31;;;;;;;11.82;2.10;;;;;;;11.93;72.22;101914.03;7396343;19;20098;-83
2022/03/14 08:50:58;;;;;;;7.50;0.65;;;;;;;11.88;72.34;101921.50;7392414;19;20479;-82
2022/03/14 08:53:25;;;;;;;6.15;0.60;;;;;;;11.82;72.50;101929.94;7390387;19;20032;-81
2022/03/14 08:55:55;;;;;;;4.85;0.60;;;;;;;11.78;72.22;101938.25;7391340;19;20027;-81
2022/03/14 08:58:24;;;;;;;8.77;0.95;;;;;;;11.75;73.05;101947.25;7392311;19;20130;-81
2022/03/14 09:00:51;;;;;;;14.15;1.95;;;;;;;11.73;74.92;101958.91;7395292;19;20568;-81
2022/03/14 09:03:19;;;;;;;14.02;1.30;;;;;;;11.88;80.54;101945.25;7393419;19;20087;-81
2022/03/14 09:05:46;;;;;;;8.27;1.00;;;;;;;11.96;76.16;101944.56;7389256;19;20092;-80
2022/03/14 09:08:14;;;;;;;10.50;0.82;;;;;;;12.11;76.51;101950.28;7391413;19;20045;-79
2022/03/14 09:10:42;;;;;;;7.82;0.75;;;;;;;12.16;75.01;101951.56;7389295;19;20010;-81
2022/03/14 09:13:10;;;;;;;4.82;0.80;;;;;;;12.26;75.76;101960.31;7391508;19;20125;-81
2022/03/14 09:15:39;;;;;;;5.10;0.82;;;;;;;12.25;72.47;101956.00;7393009;19;20011;-81
2022/03/14 09:18:07;;;;;;;7.32;0.85;;;;;;;12.27;72.13;101959.38;7392093;19;20157;-82
2022/03/14 09:20:39;;;;;;;8.25;1.00;;;;;;;12.22;72.14;101964.22;7392175;19;20014;-81
2022/03/14 09:23:13;;;;;;;7.68;0.90;;;;;;;12.19;71.95;101968.94;7393514;19;20006;-81
2022/03/14 09:25:40;;;;;;;6.97;2.13;;;;;;;12.14;72.87;101971.13;7388492;19;20007;-81
2022/03/14 09:28:07;;;;;;;5.05;1.48;;;;;;;12.09;73.27;101971.50;7389219;19;20048;-82
2022/03/14 09:30:34;;;;;;;4.80;0.70;;;;;;;12.05;73.31;101966.66;7390811;19;20213;-82
2022/03/14 09:33:09;;;;;;;8.23;3.03;;;;;;;12.04;73.49;101972.91;7392789;19;20071;-82
2022/03/14 09:35:37;;;;;;;5.68;1.63;;;;;;;12.04;74.14;101978.19;7388737;19;20018;-81
2022/03/14 09:38:04;;;;;;;9.20;0.93;;;;;;;12.02;74.40;101980.13;7390040;19;20115;-82
2022/03/14 09:40:32;;;;;;;8.73;0.82;;;;;;;12.04;73.16;101988.75;7392047;19;20458;-81
2022/03/14 09:43:02;;;;;;;8.95;2.15;;;;;;;12.03;73.31;101989.69;7390451;19;20436;-81
2022/03/14 09:45:37;;;;;;;9.85;1.58;;;;;;;11.94;73.34;101989.50;7392630;19;20034;-82
2022/03/14 09:48:05;;;;;;;4.65;0.80;;;;;;;11.93;72.83;101993.16;7392215;19;20031;-81
2022/03/14 09:50:37;;;;;;;8.32;1.58;;;;;;;11.98;72.92;101993.59;7394152;19;20126;-80
2022/03/14 09:53:11;;;;;;;11.02;4.45;;;;;;;12.05;74.11;101991.22;7390310;19;20021;-80
2022/03/14 09:55:44;;;;;;;7.70;1.35;;;;;;;12.13;74.48;101987.94;7394435;19;20459;-81
2022/03/14 09:58:16;;;;;;;11.48;1.30;;;;;;;12.18;73.98;101994.47;7393561;19;20022;-80
2022/03/14 10:00:44;;;;;;;6.82;1.00;;;;;;;12.21;73.93;101993.34;7389210;19;20010;-80
2022/03/14 10:03:18;;;;;;;11.23;4.40;;;;;;;12.25;73.95;102003.50;7391807;19;20011;-80
2022/03/14 10:05:46;;;;;;;7.45;1.85;;;;;;;12.26;73.11;102015.75;7386870;19;20007;-82
2022/03/14 10:08:14;;;;;;;11.13;1.50;;;;;;;12.26;72.77;102022.81;7392478;19;20446;-81
2022/03/14 10:10:42;;;;;;;6.82;1.60;;;;;;;12.20;72.79;102024.19;7391496;19;20014;-81
2022/03/14 10:13:37;;;;;;;8.63;1.38;;;;;;;12.24;74.98;102025.59;7390880;19;20449;-81
2022/03/14 10:16:07;;;;;;;9.38;1.70;;;;;;;12.21;73.19;102027.66;7393105;19;20495;-81
2022/03/14 10:18:37;;;;;;;10.82;1.75;;;;;;;12.23;74.67;102016.03;7389481;19;20026;-80
2022/03/14 10:23:59;;;;;;;5.63;0.70;;;;;;;12.19;73.15;102025.16;7388275;19;20013;-81
2022/03/14 10:26:27;;;;;;;8.93;1.13;;;;;;;12.23;74.24;102037.13;7388615;19;20018;-79
2022/03/14 10:28:56;;;;;;;9.23;2.63;;;;;;;12.24;73.58;102035.34;7386475;19;20015;-81
2022/03/14 10:31:37;;;;;;;7.45;2.20;;;;;;;12.30;74.43;102046.16;7384687;19;20014;-79
2022/03/14 10:34:10;;;;;;;5.60;0.93;;;;;;;12.36;74.68;102053.56;7386198;19;20007;-79
2022/03/14 10:36:54;;;;;;;6.93;1.05;;;;;;;12.35;72.36;102043.13;7386277;19;20436;-79
2022/03/14 10:39:30;;;;;;;6.53;0.60;;;;;;;12.39;72.07;102036.63;7389857;19;20019;-78
2022/03/14 10:42:01;;;;;;;6.47;1.65;;;;;;;12.48;72.63;102048.19;7385114;19;20010;-79
2022/03/14 10:44:48;;;;;;;4.53;0.43;;;;;;;12.51;70.63;102053.19;7385268;19;20490;-78
2022/03/14 10:47:16;;;;;;;6.63;0.90;;;;;;;12.56;71.17;102057.09;7385759;19;20021;-80
2022/03/14 10:49:43;;;;;;;5.90;0.88;;;;;;;12.62;70.15;102061.81;7386486;19;20054;-79
2022/03/14 10:52:18;;;;;;;5.95;0.50;;;;;;;12.66;70.18;102057.09;7385339;19;20003;-78
2022/03/14 10:54:46;;;;;;;4.22;0.98;;;;;;;12.65;69.63;102066.81;7380072;19;20074;-80
2022/03/14 10:57:22;;;;;;;7.32;0.60;;;;;;;12.73;70.77;102061.72;7387320;19;20708;-80
2022/03/14 10:59:51;;;;;;;4.65;0.50;;;;;;;12.80;69.67;102067.28;7383829;19;20010;-79
2022/03/14 11:02:31;;;;;;;13.30;0.85;;;;;;;12.88;70.35;102066.59;7376867;19;20013;-79
2022/03/14 11:05:09;;;;;;;6.80;0.55;;;;;;;12.94;68.95;102066.06;7378852;19;20015;-78
2022/03/14 11:07:36;;;;;;;6.75;0.60;;;;;;;12.97;67.55;102069.25;7385058;19;20361;-78
2022/03/14 11:10:06;;;;;;;6.72;0.65;;;;;;;13.00;66.33;102068.16;7384304;19;20018;-79
2022/03/14 11:12:33;;;;;;;1.83;0.50;;;;;;;13.07;66.68;102070.09;7382750;19;20019;-79
2022/03/14 11:15:04;;;;;;;5.00;0.50;;;;;;;13.17;67.09;102067.47;7384338;19;20018;-80
2022/03/14 11:17:35;;;;;;;3.05;0.40;;;;;;;13.20;67.01;102068.06;7385959;19;20010;-79
2022/03/14 11:20:23;;;;;;;3.92;0.30;;;;;;;13.21;65.62;102063.59;7383645;19;20371;-80
2022/03/14 11:22:51;;;;;;;2.33;0.30;;;;;;;13.26;66.09;102064.00;7388448;19;20026;-79
2022/03/14 11:25:20;;;;;;;4.93;0.20;;;;;;;13.32;65.73;102070.53;7386955;19;20125;-78
2022/03/14 11:27:50;;;;;;;3.78;0.40;;;;;;;13.32;64.87;102068.75;7385426;19;20022;-80
2022/03/14 11:30:18;;;;;;;4.68;0.90;;;;;;;13.37;65.10;102065.66;7381978;19;20006;-80
2022/03/14 11:32:45;;;;;;;26.15;10.18;;;;;;;13.42;65.40;102069.56;7386099;19;20336;-79
2022/03/14 11:35:13;;;;;;;4.95;1.10;;;;;;;13.47;64.49;102055.91;7384592;19;20122;-78
2022/03/14 11:37:42;;;;;;;6.60;0.45;;;;;;;13.49;63.61;102064.56;7382091;19;20082;-80
2022/03/14 11:40:10;;;;;;;5.68;0.40;;;;;;;13.52;63.15;102062.47;7385481;19;20019;-80